Time;durP1;ratioP1;P1;durP2;ratioP2;P2;SDS_P1;SDS_P2;PMS_P1;PMS_P2;Temp;Humidity;BMP_temperature;BMP_pressure;BME280_temperature;BME280_humidity;BME280_pressure;Samples;Min_cycle;Max_cycle;Signal;HPM_P1;HPM_P2
2021/11/29 00:02:01;;;;;;;9.10;3.43;;;1.00;99.90;;;;;;4994466;28;20037;-83
2021/11/29 00:04:27;;;;;;;7.73;3.40;;;1.00;99.90;;;;;;4996565;28;20470;-83
2021/11/29 00:06:52;;;;;;;7.77;3.17;;;1.00;99.90;;;;;;4998517;28;20065;-83
2021/11/29 00:09:18;;;;;;;7.33;2.37;;;1.00;99.90;;;;;;4993688;28;20109;-83
2021/11/29 00:11:44;;;;;;;6.10;2.30;;;1.10;99.90;;;;;;4993572;28;20042;-82
2021/11/29 00:14:10;;;;;;;8.17;2.43;;;1.10;99.90;;;;;;4995575;28;20467;-82
2021/11/29 00:16:36;;;;;;;6.50;2.03;;;1.10;99.90;;;;;;5013443;28;20022;-83
2021/11/29 00:19:04;;;;;;;8.53;1.90;;;1.20;99.90;;;;;;5028786;28;20079;-82
2021/11/29 00:21:34;;;;;;;6.13;1.60;;;1.40;99.90;;;;;;5000849;28;20573;-82
2021/11/29 00:24:00;;;;;;;10.90;2.43;;;1.40;99.90;;;;;;5013284;28;20080;-82
2021/11/29 00:26:27;;;;;;;5.77;1.70;;;1.60;99.90;;;;;;5012709;28;20033;-82
2021/11/29 00:28:53;;;;;;;5.50;2.03;;;1.60;99.90;;;;;;4996935;28;20395;-82
2021/11/29 00:31:19;;;;;;;10.97;1.77;;;1.80;99.90;;;;;;5012943;28;20030;-82
2021/11/29 00:33:44;;;;;;;6.60;1.60;;;1.70;99.90;;;;;;5004411;28;20049;-82
2021/11/29 00:36:10;;;;;;;4.87;1.47;;;1.80;99.90;;;;;;4993234;28;20042;-82
2021/11/29 00:38:37;;;;;;;5.13;1.30;;;1.90;99.90;;;;;;5004991;28;20034;-83
2021/11/29 00:41:03;;;;;;;4.73;1.00;;;1.90;99.90;;;;;;5014303;28;20052;-82
2021/11/29 00:43:28;;;;;;;4.60;1.00;;;2.00;99.90;;;;;;5012452;28;20354;-82
2021/11/29 00:45:54;;;;;;;5.07;1.20;;;2.00;99.90;;;;;;4996454;28;20060;-82
2021/11/29 00:48:19;;;;;;;4.13;1.10;;;2.00;99.90;;;;;;4997421;28;20036;-83
2021/11/29 00:50:45;;;;;;;3.43;0.90;;;2.00;99.90;;;;;;5033121;28;20087;-82
2021/11/29 00:53:12;;;;;;;3.37;0.77;;;2.00;99.90;;;;;;4998025;28;20072;-82
2021/11/29 00:55:39;;;;;;;6.47;0.93;;;2.00;99.90;;;;;;5016368;28;20038;-83
2021/11/29 00:58:07;;;;;;;3.87;1.17;;;2.00;99.90;;;;;;5014634;28;20155;-82
2021/11/29 01:00:33;;;;;;;2.30;0.60;;;2.00;99.90;;;;;;4999148;28;20121;-83
2021/11/29 01:02:59;;;;;;;3.90;0.90;;;2.20;99.90;;;;;;4994066;28;20041;-82
2021/11/29 01:05:25;;;;;;;3.33;0.90;;;2.00;99.90;;;;;;4994026;28;20035;-82
2021/11/29 01:07:52;;;;;;;5.73;0.73;;;2.00;99.90;;;;;;4992767;28;20494;-82
2021/11/29 01:10:19;;;;;;;3.93;0.60;;;2.10;99.90;;;;;;5002676;28;20385;-81
2021/11/29 01:12:46;;;;;;;5.03;0.80;;;2.00;99.90;;;;;;5012209;28;20584;-81
2021/11/29 01:15:20;;;;;;;2.50;0.80;;;2.00;99.90;;;;;;4996083;28;20091;-82
2021/11/29 01:17:46;;;;;;;5.53;0.60;;;1.90;99.90;;;;;;5013012;28;20041;-81
2021/11/29 01:20:12;;;;;;;2.33;0.73;;;1.90;99.90;;;;;;5012174;28;20041;-81
2021/11/29 01:22:39;;;;;;;3.70;0.60;;;1.90;99.90;;;;;;4994894;28;20026;-81
2021/11/29 01:25:06;;;;;;;4.50;0.80;;;1.90;99.90;;;;;;5008311;28;20031;-81
2021/11/29 01:27:32;;;;;;;6.50;0.70;;;1.80;99.90;;;;;;4997161;28;20032;-81
2021/11/29 01:29:57;;;;;;;8.13;1.00;;;1.80;99.90;;;;;;4993892;28;20125;-81
2021/11/29 01:32:23;;;;;;;4.27;0.80;;;1.70;99.90;;;;;;5011716;28;20050;-82
2021/11/29 01:34:49;;;;;;;4.23;0.90;;;1.70;99.90;;;;;;5012571;28;20030;-82
2021/11/29 01:37:14;;;;;;;6.27;0.80;;;1.70;99.90;;;;;;4989905;28;20104;-81
2021/11/29 01:39:40;;;;;;;3.87;0.73;;;1.60;99.90;;;;;;4975817;28;20038;-82
2021/11/29 01:42:07;;;;;;;6.23;0.63;;;1.60;99.90;;;;;;4975856;28;20073;-82
2021/11/29 01:44:33;;;;;;;4.47;0.73;;;1.60;99.90;;;;;;4985690;28;20030;-82
2021/11/29 01:46:59;;;;;;;6.40;0.80;;;1.60;99.90;;;;;;5011653;28;20026;-81
2021/11/29 01:49:25;;;;;;;10.93;0.90;;;1.60;99.90;;;;;;5012377;28;20038;-82
2021/11/29 01:51:50;;;;;;;5.07;1.00;;;1.60;99.90;;;;;;4984776;28;20034;-81
2021/11/29 01:54:16;;;;;;;5.77;0.80;;;1.60;99.90;;;;;;5012902;28;20034;-81
2021/11/29 01:56:42;;;;;;;5.87;0.70;;;1.60;99.90;;;;;;5027661;28;20076;-81
2021/11/29 01:59:08;;;;;;;2.90;0.90;;;1.60;99.90;;;;;;5011878;28;20480;-81
2021/11/29 02:01:34;;;;;;;7.47;0.87;;;1.60;99.90;;;;;;4995375;28;20038;-80
2021/11/29 02:04:00;;;;;;;7.10;1.30;;;1.60;99.90;;;;;;5011789;28;20026;-81
2021/11/29 02:06:28;;;;;;;2.53;0.80;;;1.60;99.90;;;;;;5010848;28;20390;-82
2021/11/29 02:08:55;;;;;;;3.97;0.90;;;1.70;99.90;;;;;;5028319;28;20467;-82
2021/11/29 02:11:22;;;;;;;4.60;1.00;;;1.60;99.90;;;;;;5031945;28;20040;-82
2021/11/29 02:13:49;;;;;;;4.17;1.17;;;1.60;99.90;;;;;;5016451;28;20501;-82
2021/11/29 02:16:15;;;;;;;3.57;0.73;;;1.60;99.90;;;;;;5031705;28;20471;-81
2021/11/29 02:18:41;;;;;;;4.20;1.00;;;1.60;99.90;;;;;;5014753;28;20363;-83
2021/11/29 02:21:22;;;;;;;4.13;0.90;;;1.50;99.90;;;;;;5016742;28;20030;-83
2021/11/29 02:23:57;;;;;;;3.20;0.80;;;1.60;99.90;;;;;;5031778;28;20030;-83
2021/11/29 02:26:28;;;;;;;4.80;1.10;;;1.50;99.90;;;;;;5031117;28;20494;-82
2021/11/29 02:28:57;;;;;;;1.60;0.70;;;1.60;99.90;;;;;;5032230;28;20449;-82
2021/11/29 02:31:26;;;;;;;2.00;0.70;;;1.50;99.90;;;;;;5016600;28;20025;-83
2021/11/29 02:33:51;;;;;;;2.90;0.60;;;1.60;99.90;;;;;;5031185;28;20192;-82
2021/11/29 02:36:17;;;;;;;2.50;0.70;;;1.60;99.90;;;;;;5015225;28;20109;-84
2021/11/29 02:38:43;;;;;;;2.67;0.70;;;1.60;99.90;;;;;;5015527;28;20075;-84
2021/11/29 02:41:09;;;;;;;3.13;0.63;;;1.60;99.90;;;;;;5016525;28;20051;-84
2021/11/29 02:43:35;;;;;;;2.90;0.70;;;1.60;99.90;;;;;;5015206;28;20160;-84
2021/11/29 02:46:01;;;;;;;4.43;0.70;;;1.60;99.90;;;;;;4981008;28;20089;-83
2021/11/29 02:48:46;;;;;;;3.77;0.60;;;1.60;99.90;;;;;;4987105;28;20042;-82
2021/11/29 02:51:29;;;;;;;3.47;0.60;;;1.50;99.90;;;;;;5014566;28;20048;-83
2021/11/29 02:54:11;;;;;;;2.60;0.63;;;1.60;99.90;;;;;;5014646;28;20041;-83
2021/11/29 02:56:41;;;;;;;2.20;0.60;;;1.50;99.90;;;;;;5013974;28;20057;-82
2021/11/29 02:59:13;;;;;;;3.20;0.70;;;1.50;99.90;;;;;;4995974;28;20057;-82
2021/11/29 03:01:40;;;;;;;6.03;1.30;;;1.50;99.90;;;;;;5030025;28;20113;-82
2021/11/29 03:04:06;;;;;;;2.10;0.67;;;1.50;99.90;;;;;;5014451;28;20140;-83
2021/11/29 03:06:32;;;;;;;4.17;0.60;;;1.50;99.90;;;;;;4998320;28;20514;-82
2021/11/29 03:08:58;;;;;;;3.33;0.60;;;1.50;99.90;;;;;;5014493;28;20041;-82
2021/11/29 03:11:27;;;;;;;5.83;0.70;;;1.60;99.90;;;;;;5014542;28;20058;-82
2021/11/29 03:13:53;;;;;;;3.27;0.60;;;1.50;99.90;;;;;;5014867;28;20038;-83
2021/11/29 03:16:19;;;;;;;1.63;0.50;;;1.60;99.90;;;;;;5014412;28;20382;-82
2021/11/29 03:18:46;;;;;;;5.10;0.40;;;1.60;99.90;;;;;;5030407;28;20029;-82
2021/11/29 03:21:17;;;;;;;6.33;0.70;;;1.50;99.90;;;;;;5030542;28;20493;-82
2021/11/29 03:23:45;;;;;;;2.67;0.47;;;1.50;99.90;;;;;;5030548;28;20022;-83
2021/11/29 03:26:15;;;;;;;4.07;0.53;;;1.50;99.90;;;;;;5030598;28;20076;-82
2021/11/29 03:28:42;;;;;;;2.00;0.40;;;1.50;99.90;;;;;;5014657;28;20104;-82
2021/11/29 03:31:10;;;;;;;3.83;0.50;;;1.50;99.90;;;;;;4985317;28;20153;-82
2021/11/29 03:33:37;;;;;;;1.23;0.40;;;1.50;99.90;;;;;;4978274;28;20039;-82
2021/11/29 03:36:04;;;;;;;1.43;0.37;;;1.50;99.90;;;;;;4994637;28;20493;-82
2021/11/29 03:38:30;;;;;;;1.00;0.40;;;1.40;99.90;;;;;;4978217;28;20026;-82
2021/11/29 03:40:56;;;;;;;1.23;0.43;;;1.40;99.90;;;;;;4998290;28;20032;-82
2021/11/29 03:43:22;;;;;;;1.47;0.50;;;1.40;99.90;;;;;;5013962;28;20048;-82
2021/11/29 03:45:47;;;;;;;1.63;0.50;;;1.40;99.90;;;;;;5012300;28;20117;-81
2021/11/29 03:48:13;;;;;;;2.37;0.70;;;1.40;99.90;;;;;;4994294;28;20081;-81
2021/11/29 03:50:39;;;;;;;2.17;0.50;;;1.40;99.90;;;;;;4977815;28;20027;-81
2021/11/29 03:53:04;;;;;;;1.87;0.50;;;1.40;99.90;;;;;;4993912;28;20081;-81
2021/11/29 03:55:30;;;;;;;1.50;0.40;;;1.40;99.90;;;;;;4977954;28;20030;-82
2021/11/29 03:57:56;;;;;;;2.63;0.70;;;1.40;99.90;;;;;;5000484;28;20057;-81
2021/11/29 04:00:22;;;;;;;1.63;0.50;;;1.40;99.90;;;;;;5013145;28;20033;-82
2021/11/29 04:02:47;;;;;;;4.83;0.70;;;1.30;99.90;;;;;;5018290;28;20034;-82
2021/11/29 04:05:13;;;;;;;2.27;0.50;;;1.30;99.90;;;;;;5006186;28;20030;-81
2021/11/29 04:07:39;;;;;;;3.70;0.83;;;1.30;99.90;;;;;;5013014;28;20494;-82
2021/11/29 04:10:06;;;;;;;5.93;1.00;;;1.20;99.90;;;;;;5013456;28;20060;-82
2021/11/29 04:12:31;;;;;;;4.00;0.83;;;1.20;99.90;;;;;;5012792;28;20042;-81
2021/11/29 04:14:57;;;;;;;3.03;0.90;;;1.20;99.90;;;;;;5010218;28;20044;-81
2021/11/29 04:17:23;;;;;;;4.50;1.10;;;1.20;99.90;;;;;;5013387;28;20053;-81
2021/11/29 04:19:48;;;;;;;7.87;1.43;;;1.20;99.90;;;;;;4996413;28;20115;-82
2021/11/29 04:22:15;;;;;;;4.07;1.63;;;1.20;99.90;;;;;;5004543;28;20495;-81
2021/11/29 04:24:46;;;;;;;5.93;1.27;;;1.10;99.90;;;;;;4994331;28;20022;-83
2021/11/29 04:27:11;;;;;;;4.43;1.47;;;1.10;99.90;;;;;;4993790;28;20116;-83
2021/11/29 04:29:41;;;;;;;4.97;1.30;;;1.10;99.90;;;;;;4997609;28;20180;-83
2021/11/29 04:32:07;;;;;;;5.47;1.57;;;1.10;99.90;;;;;;5017132;28;20116;-84
2021/11/29 04:34:34;;;;;;;3.33;1.20;;;1.10;99.90;;;;;;5033179;28;20029;-84
2021/11/29 04:37:02;;;;;;;4.53;1.40;;;1.10;99.90;;;;;;5030744;28;20064;-83
2021/11/29 04:39:28;;;;;;;3.00;1.13;;;1.10;99.90;;;;;;5015478;28;20026;-83
2021/11/29 04:41:54;;;;;;;3.20;1.20;;;1.20;99.90;;;;;;4999882;28;20076;-83
2021/11/29 04:44:20;;;;;;;4.33;1.20;;;1.10;99.90;;;;;;5002095;28;20030;-83
2021/11/29 04:46:45;;;;;;;8.20;1.90;;;1.10;99.90;;;;;;5014924;28;20026;-83
2021/11/29 04:49:11;;;;;;;3.57;1.03;;;1.10;99.90;;;;;;5029702;28;20421;-83
2021/11/29 04:51:37;;;;;;;7.47;1.40;;;1.20;99.90;;;;;;5012637;28;20026;-83
2021/11/29 04:54:03;;;;;;;3.73;1.13;;;1.20;99.90;;;;;;5012399;28;20042;-83
2021/11/29 04:56:29;;;;;;;4.70;1.23;;;1.20;99.90;;;;;;5011499;28;20041;-83
2021/11/29 04:58:55;;;;;;;5.13;1.40;;;1.20;99.90;;;;;;5012538;28;20034;-83
2021/11/29 05:01:20;;;;;;;7.07;1.37;;;1.30;99.90;;;;;;5011953;28;20474;-83
2021/11/29 05:03:46;;;;;;;3.17;1.30;;;1.30;99.90;;;;;;5019041;28;20427;-83
2021/11/29 05:06:12;;;;;;;3.33;1.20;;;1.30;99.90;;;;;;4976940;28;20427;-84
2021/11/29 05:08:37;;;;;;;4.70;1.00;;;1.30;99.90;;;;;;4976871;28;20031;-84
2021/11/29 05:11:04;;;;;;;3.60;1.00;;;1.30;99.90;;;;;;4999194;28;20106;-84
2021/11/29 05:13:30;;;;;;;3.43;1.23;;;1.30;99.90;;;;;;5004128;28;20128;-84
2021/11/29 05:15:55;;;;;;;6.63;1.53;;;1.30;99.90;;;;;;5012512;28;20518;-83
2021/11/29 05:18:21;;;;;;;4.07;0.97;;;1.30;99.90;;;;;;4995801;28;20030;-84
2021/11/29 05:20:47;;;;;;;2.47;1.07;;;1.30;99.90;;;;;;4995492;28;20394;-83
2021/11/29 05:23:13;;;;;;;4.13;1.30;;;1.40;99.90;;;;;;5028528;28;20022;-83
2021/11/29 05:25:39;;;;;;;3.40;1.03;;;1.40;99.90;;;;;;5028539;28;20028;-84
2021/11/29 05:28:05;;;;;;;3.20;1.20;;;1.50;99.90;;;;;;5010161;28;20065;-85
2021/11/29 05:30:31;;;;;;;7.67;2.00;;;1.50;99.90;;;;;;5014020;28;20053;-85
2021/11/29 05:32:57;;;;;;;2.73;1.13;;;1.50;99.90;;;;;;5012438;28;20069;-84
2021/11/29 05:35:23;;;;;;;8.17;2.47;;;1.50;99.90;;;;;;5013593;28;20393;-85
2021/11/29 05:37:51;;;;;;;10.00;1.40;;;1.40;99.90;;;;;;5012615;28;20022;-83
2021/11/29 05:40:17;;;;;;;6.43;1.33;;;1.40;99.90;;;;;;5011058;28;20026;-83
2021/11/29 05:42:43;;;;;;;4.53;1.67;;;1.40;99.90;;;;;;4992513;28;20411;-83
2021/11/29 05:45:10;;;;;;;7.47;1.50;;;1.40;99.90;;;;;;5006548;28;20126;-84
2021/11/29 05:47:36;;;;;;;5.70;1.70;;;1.40;99.90;;;;;;4999473;28;20034;-84
2021/11/29 05:50:05;;;;;;;7.03;1.70;;;1.40;99.90;;;;;;5016455;28;20029;-84
2021/11/29 05:52:31;;;;;;;4.37;1.50;;;1.30;99.90;;;;;;5017110;28;20037;-83
2021/11/29 05:54:56;;;;;;;9.73;2.07;;;1.30;99.90;;;;;;4998752;28;20038;-84
2021/11/29 05:57:22;;;;;;;4.80;1.80;;;1.30;99.90;;;;;;5014556;28;20099;-83
2021/11/29 05:59:48;;;;;;;3.97;1.50;;;1.30;99.90;;;;;;5032493;28;20470;-83
2021/11/29 06:02:13;;;;;;;5.57;2.00;;;1.30;99.90;;;;;;5015385;28;20030;-84
2021/11/29 06:04:39;;;;;;;7.97;2.47;;;1.20;99.90;;;;;;5015724;28;20025;-82
2021/11/29 06:07:05;;;;;;;4.77;2.10;;;1.10;99.90;;;;;;4983143;28;20030;-82
2021/11/29 06:09:30;;;;;;;6.53;2.43;;;1.20;99.90;;;;;;5015506;28;20030;-82
2021/11/29 06:11:56;;;;;;;6.53;2.60;;;1.20;99.90;;;;;;5014411;28;20406;-82
2021/11/29 06:14:25;;;;;;;6.87;2.70;;;1.30;99.90;;;;;;5015815;28;20022;-85
2021/11/29 06:16:51;;;;;;;7.83;2.17;;;1.30;99.90;;;;;;5015580;28;20373;-83
2021/11/29 06:19:18;;;;;;;10.97;3.17;;;1.30;99.90;;;;;;4998528;28;20113;-84
2021/11/29 06:21:44;;;;;;;7.20;2.93;;;1.30;99.90;;;;;;5012109;28;20026;-83
2021/11/29 06:24:09;;;;;;;6.40;3.30;;;1.30;99.90;;;;;;5003617;28;20096;-83
2021/11/29 06:26:35;;;;;;;10.53;3.20;;;1.30;99.90;;;;;;5001365;28;20034;-83
2021/11/29 06:29:01;;;;;;;9.27;3.57;;;1.30;99.90;;;;;;5008894;28;20040;-83
2021/11/29 06:31:27;;;;;;;9.67;2.77;;;1.30;99.90;;;;;;5025742;28;20026;-83
2021/11/29 06:33:52;;;;;;;8.20;3.70;;;1.30;99.90;;;;;;5008967;28;20069;-81
2021/11/29 06:36:18;;;;;;;10.53;3.87;;;1.30;99.90;;;;;;4995892;28;20034;-82
2021/11/29 06:38:47;;;;;;;9.47;4.00;;;1.30;99.90;;;;;;5014706;28;20085;-83
2021/11/29 06:41:13;;;;;;;15.80;4.50;;;1.30;99.90;;;;;;5014694;28;20478;-83
2021/11/29 06:43:39;;;;;;;9.17;4.87;;;1.30;99.90;;;;;;5027816;28;20118;-83
2021/11/29 06:46:04;;;;;;;12.00;5.00;;;1.30;99.90;;;;;;5001397;28;20394;-83
2021/11/29 06:48:30;;;;;;;13.53;4.67;;;1.30;99.90;;;;;;5014980;28;20030;-83
2021/11/29 06:50:56;;;;;;;7.77;4.60;;;1.30;99.90;;;;;;5010586;28;20030;-83
2021/11/29 06:53:23;;;;;;;11.47;4.77;;;1.40;99.90;;;;;;5028203;28;20030;-83
2021/11/29 06:55:50;;;;;;;12.33;4.63;;;1.40;99.90;;;;;;5030164;28;20030;-84
2021/11/29 06:58:16;;;;;;;11.57;4.80;;;1.40;99.90;;;;;;5028607;28;20042;-83
2021/11/29 07:00:42;;;;;;;11.77;4.67;;;1.40;99.90;;;;;;5014555;28;20165;-82
2021/11/29 07:03:07;;;;;;;9.50;4.73;;;1.50;99.90;;;;;;4985609;28;20391;-84
2021/11/29 07:05:33;;;;;;;10.30;4.57;;;1.50;99.90;;;;;;5013150;28;20069;-83
2021/11/29 07:07:59;;;;;;;11.20;5.23;;;1.50;99.90;;;;;;5011994;28;20080;-84
2021/11/29 07:10:25;;;;;;;10.70;5.03;;;1.60;99.90;;;;;;4989022;28;20037;-85
2021/11/29 07:12:53;;;;;;;11.77;4.97;;;1.60;99.90;;;;;;5027692;28;20062;-84
2021/11/29 07:15:19;;;;;;;10.63;5.37;;;1.60;99.90;;;;;;5014707;28;20471;-85
2021/11/29 07:17:46;;;;;;;9.20;3.73;;;1.70;99.90;;;;;;5014372;28;20470;-84
2021/11/29 07:20:12;;;;;;;9.57;3.90;;;1.80;99.90;;;;;;5029275;28;20030;-83
2021/11/29 07:22:38;;;;;;;11.43;4.00;;;1.90;99.90;;;;;;5029530;28;20041;-81
2021/11/29 07:25:04;;;;;;;9.90;3.97;;;2.00;99.90;;;;;;5005908;28;20041;-83
2021/11/29 07:27:32;;;;;;;8.17;3.47;;;2.00;99.90;;;;;;4993894;28;20026;-84
2021/11/29 07:29:58;;;;;;;12.17;3.90;;;2.10;99.90;;;;;;5007619;28;20378;-84
2021/11/29 07:32:25;;;;;;;10.43;3.80;;;2.10;99.90;;;;;;5003031;28;20038;-84
2021/11/29 07:34:51;;;;;;;7.90;2.90;;;2.20;99.90;;;;;;4993932;28;20019;-84
2021/11/29 07:37:19;;;;;;;9.63;4.30;;;2.20;99.90;;;;;;4996100;28;20054;-84
2021/11/29 07:39:46;;;;;;;14.73;3.60;;;2.20;99.90;;;;;;4995616;28;20026;-85
2021/11/29 07:42:13;;;;;;;10.83;3.23;;;2.30;99.90;;;;;;5021644;28;20037;-88
2021/11/29 07:44:39;;;;;;;9.40;3.53;;;2.30;99.90;;;;;;5011819;28;20030;-85
2021/11/29 07:47:05;;;;;;;8.97;3.10;;;2.40;99.90;;;;;;5014192;28;20521;-84
2021/11/29 07:49:31;;;;;;;8.97;3.27;;;2.40;99.90;;;;;;5011432;28;20030;-82
2021/11/29 07:51:57;;;;;;;10.17;2.80;;;2.40;99.90;;;;;;5012061;28;20026;-82
2021/11/29 07:54:23;;;;;;;8.97;3.00;;;2.50;99.90;;;;;;4995946;28;20061;-82
2021/11/29 07:56:49;;;;;;;11.33;3.83;;;2.50;99.90;;;;;;4994159;28;20046;-82
2021/11/29 07:59:15;;;;;;;7.87;2.77;;;2.50;99.90;;;;;;5008773;28;20095;-81
2021/11/29 08:01:40;;;;;;;11.30;3.40;;;2.50;99.90;;;;;;5012499;28;20438;-82
2021/11/29 08:04:06;;;;;;;5.47;2.47;;;2.50;99.90;;;;;;5012480;28;20434;-80
2021/11/29 08:06:32;;;;;;;12.60;3.27;;;2.50;99.90;;;;;;5029093;28;20026;-82
2021/11/29 08:08:57;;;;;;;11.23;3.17;;;2.60;99.90;;;;;;5012292;28;20030;-81
2021/11/29 08:11:27;;;;;;;12.80;3.50;;;2.60;99.90;;;;;;5012508;28;20037;-82
2021/11/29 08:13:52;;;;;;;8.53;3.23;;;2.60;99.90;;;;;;5007653;28;20125;-81
2021/11/29 08:16:18;;;;;;;7.73;2.40;;;2.70;99.90;;;;;;4991880;28;20550;-81
2021/11/29 08:18:44;;;;;;;6.73;2.70;;;2.70;99.90;;;;;;4999707;28;20034;-81
2021/11/29 08:21:10;;;;;;;11.80;3.40;;;2.70;99.90;;;;;;5029414;28;20076;-83
2021/11/29 08:23:35;;;;;;;9.67;2.20;;;2.80;99.90;;;;;;5015333;28;20108;-88
2021/11/29 08:26:01;;;;;;;8.63;2.43;;;2.80;99.90;;;;;;5015350;28;20038;-83
2021/11/29 08:28:33;;;;;;;7.20;2.20;;;2.90;99.90;;;;;;5131761;27;20401;-72
2021/11/29 08:30:59;;;;;;;9.57;2.63;;;3.00;99.90;;;;;;5130088;27;20033;-71
2021/11/29 08:33:26;;;;;;;9.83;1.97;;;3.00;99.90;;;;;;5131309;28;20347;-72
2021/11/29 08:35:52;;;;;;;8.07;1.83;;;3.10;99.90;;;;;;5130292;27;20019;-72
2021/11/29 08:38:18;;;;;;;6.30;1.13;;;3.20;99.90;;;;;;5109086;28;20119;-72
2021/11/29 08:40:46;;;;;;;6.93;1.23;;;3.20;99.90;;;;;;5126343;27;20438;-72
2021/11/29 08:43:16;;;;;;;8.07;1.03;;;3.30;99.90;;;;;;5131731;28;20031;-73
2021/11/29 08:45:42;;;;;;;5.37;1.20;;;3.30;99.90;;;;;;5131127;27;20475;-72
2021/11/29 08:48:10;;;;;;;8.37;0.90;;;3.40;99.90;;;;;;5109515;28;20119;-75
2021/11/29 08:50:37;;;;;;;4.90;1.00;;;3.40;99.90;;;;;;5126755;28;20016;-75
2021/11/29 08:53:07;;;;;;;5.67;1.20;;;3.50;99.90;;;;;;5122422;28;20043;-75
2021/11/29 08:55:34;;;;;;;7.93;1.03;;;3.50;99.90;;;;;;5130355;28;20027;-75
2021/11/29 08:58:00;;;;;;;3.03;0.87;;;3.60;99.90;;;;;;5130195;27;20103;-76
2021/11/29 09:00:26;;;;;;;7.87;0.83;;;3.60;99.90;;;;;;5113013;28;20112;-75
2021/11/29 09:02:52;;;;;;;10.13;0.70;;;3.70;99.90;;;;;;5130992;27;20035;-75
2021/11/29 09:05:18;;;;;;;4.50;0.90;;;3.70;99.90;;;;;;5129829;27;20027;-75
2021/11/29 09:07:45;;;;;;;7.57;0.80;;;3.80;99.90;;;;;;5129486;27;20028;-75
2021/11/29 09:10:11;;;;;;;3.70;1.03;;;3.80;99.90;;;;;;5130902;27;20118;-75
2021/11/29 09:12:38;;;;;;;4.23;0.50;;;3.80;99.90;;;;;;5111234;27;20028;-75
2021/11/29 09:15:07;;;;;;;4.47;0.83;;;3.90;99.90;;;;;;5109820;28;20089;-75
2021/11/29 09:17:33;;;;;;;4.20;0.70;;;4.00;99.90;;;;;;5109019;28;20038;-75
2021/11/29 09:19:59;;;;;;;6.00;0.90;;;4.00;99.90;;;;;;5124227;27;20032;-74
2021/11/29 09:22:25;;;;;;;3.17;0.70;;;4.10;99.90;;;;;;5122436;27;20032;-75
2021/11/29 09:24:51;;;;;;;3.47;0.70;;;4.40;99.90;;;;;;5112464;28;20053;-75
2021/11/29 09:27:17;;;;;;;3.03;0.60;;;4.70;99.90;;;;;;5105720;28;20068;-75
2021/11/29 09:29:45;;;;;;;3.27;0.70;;;5.00;99.90;;;;;;5108173;28;20036;-75
2021/11/29 09:32:12;;;;;;;4.93;0.80;;;5.40;99.90;;;;;;5091973;28;20333;-75
2021/11/29 09:34:37;;;;;;;2.93;0.60;;;5.70;99.90;;;;;;5108896;28;20058;-75
2021/11/29 09:37:03;;;;;;;2.07;0.40;;;5.90;99.90;;;;;;5108900;28;20479;-75
2021/11/29 09:39:29;;;;;;;2.43;0.63;;;6.00;99.90;;;;;;5082161;28;20056;-75
2021/11/29 09:41:54;;;;;;;4.47;0.60;;;6.10;99.90;;;;;;5108330;28;20043;-75
2021/11/29 09:44:20;;;;;;;1.53;0.40;;;6.00;99.90;;;;;;5095236;28;20043;-75
2021/11/29 09:46:46;;;;;;;1.63;0.47;;;6.00;99.90;;;;;;5094728;28;20027;-75
2021/11/29 09:49:12;;;;;;;5.27;1.57;;;5.90;99.60;;;;;;5094941;28;20055;-75
2021/11/29 09:51:38;;;;;;;3.50;0.40;;;5.90;99.40;;;;;;5095018;28;20074;-75
2021/11/29 09:54:07;;;;;;;4.20;0.60;;;5.90;99.40;;;;;;5096405;28;20107;-75
2021/11/29 09:56:33;;;;;;;4.57;0.43;;;5.80;99.20;;;;;;5087129;28;20028;-75
2021/11/29 09:58:59;;;;;;;2.07;0.50;;;5.80;99.20;;;;;;5108257;28;20039;-75
2021/11/29 10:01:24;;;;;;;3.60;0.40;;;5.80;99.10;;;;;;5096181;28;20036;-75
2021/11/29 10:03:50;;;;;;;7.00;0.57;;;5.80;99.10;;;;;;5096129;28;20112;-73
2021/11/29 10:06:16;;;;;;;2.83;0.50;;;5.80;99.10;;;;;;5096745;28;20077;-73
2021/11/29 10:08:41;;;;;;;3.30;0.50;;;5.90;99.20;;;;;;5098169;28;20080;-73
2021/11/29 10:11:13;;;;;;;2.87;0.70;;;5.90;99.10;;;;;;5114557;28;20031;-73
2021/11/29 10:14:02;;;;;;;1.13;0.50;;;5.90;99.10;;;;;;5096370;28;20020;-77
2021/11/29 10:16:41;;;;;;;3.27;0.40;;;6.00;99.00;;;;;;5111327;28;20020;-72
2021/11/29 10:19:11;;;;;;;3.17;0.60;;;6.00;99.00;;;;;;5094838;28;20042;-73
2021/11/29 10:21:37;;;;;;;3.17;0.57;;;6.00;99.10;;;;;;5104932;28;20371;-73
2021/11/29 10:24:04;;;;;;;3.53;0.50;;;6.10;99.00;;;;;;5108742;28;20064;-73
2021/11/29 10:26:35;;;;;;;7.60;2.47;;;6.10;98.90;;;;;;5114645;28;20042;-73
2021/11/29 10:29:06;;;;;;;2.37;0.50;;;6.10;98.90;;;;;;5091046;28;20033;-73
2021/11/29 10:31:42;;;;;;;4.43;0.63;;;6.20;98.80;;;;;;5101365;28;20059;-73
2021/11/29 10:34:15;;;;;;;1.40;0.40;;;6.30;98.80;;;;;;5097025;28;20081;-73
2021/11/29 10:36:44;;;;;;;2.90;0.40;;;6.30;98.80;;;;;;5094361;28;20107;-73
2021/11/29 10:39:16;;;;;;;2.53;0.40;;;6.50;98.90;;;;;;5095613;28;20059;-73
2021/11/29 10:41:47;;;;;;;3.97;1.43;;;6.60;98.80;;;;;;5093975;28;20085;-71
2021/11/29 10:44:19;;;;;;;3.77;0.50;;;6.70;98.70;;;;;;5095353;28;20414;-72
2021/11/29 10:46:47;;;;;;;2.47;0.70;;;6.70;98.60;;;;;;5112934;28;20027;-73
2021/11/29 10:49:15;;;;;;;3.80;0.40;;;6.70;98.60;;;;;;5112834;28;20020;-75
2021/11/29 10:51:46;;;;;;;3.23;0.57;;;6.90;98.90;;;;;;5114320;28;20023;-75
2021/11/29 10:54:15;;;;;;;2.57;0.40;;;6.90;99.00;;;;;;5112553;28;20019;-76
2021/11/29 10:56:43;;;;;;;1.43;0.50;;;7.00;98.90;;;;;;5112644;28;20436;-76
2021/11/29 10:59:12;;;;;;;1.77;0.40;;;7.10;98.70;;;;;;5111405;28;20153;-75
2021/11/29 11:01:40;;;;;;;2.97;0.63;;;7.20;98.50;;;;;;5094804;28;20062;-75
2021/11/29 11:04:15;;;;;;;1.40;0.40;;;7.30;98.70;;;;;;5093490;28;20074;-76
2021/11/29 11:06:46;;;;;;;2.50;0.33;;;7.70;99.90;;;;;;5094908;28;20020;-75
2021/11/29 11:09:28;;;;;;;3.93;0.40;;;8.40;99.90;;;;;;5093327;28;20052;-76
2021/11/29 11:12:14;;;;;;;1.35;0.30;;;9.20;99.90;;;;;;5093306;28;20021;-74
2021/11/29 11:14:42;;;;;;;1.52;0.38;;;10.00;99.90;;;;;;5093289;28;20064;-74
2021/11/29 11:17:12;;;;;;;2.65;0.40;;;10.50;99.40;;;;;;5099119;28;20024;-75
2021/11/29 11:19:49;;;;;;;2.90;0.30;;;10.80;98.90;;;;;;5096652;28;20490;-75
2021/11/29 11:22:21;;;;;;;2.35;0.30;;;11.00;97.70;;;;;;5112696;28;20023;-75
2021/11/29 11:24:51;;;;;;;3.95;0.50;;;11.00;96.30;;;;;;5114800;28;20031;-75
2021/11/29 11:27:17;;;;;;;2.20;0.50;;;10.90;94.70;;;;;;5094211;28;20119;-75
2021/11/29 11:29:52;;;;;;;3.95;0.40;;;10.70;93.60;;;;;;5094198;28;20043;-73
2021/11/29 11:32:35;;;;;;;2.33;0.30;;;10.50;93.40;;;;;;5094430;28;20109;-72
2021/11/29 11:35:03;;;;;;;2.28;0.40;;;10.40;93.00;;;;;;5101625;28;20066;-73
2021/11/29 11:37:41;;;;;;;3.65;0.40;;;10.30;92.40;;;;;;5106253;28;20019;-72
2021/11/29 11:40:11;;;;;;;2.90;0.60;;;10.10;91.20;;;;;;5112055;28;20102;-73
2021/11/29 11:42:37;;;;;;;1.63;0.40;;;9.90;91.10;;;;;;5097562;28;20042;-73
2021/11/29 11:45:06;;;;;;;2.95;0.50;;;9.70;90.10;;;;;;5091797;28;20024;-72
2021/11/29 11:47:32;;;;;;;2.90;0.32;;;10.00;91.80;;;;;;5092723;28;20016;-73
2021/11/29 11:49:58;;;;;;;2.17;0.35;;;10.50;93.00;;;;;;5093805;28;20040;-73
2021/11/29 11:52:25;;;;;;;3.72;0.30;;;11.20;92.60;;;;;;5094430;28;20030;-75
2021/11/29 11:54:56;;;;;;;1.40;0.30;;;11.90;92.40;;;;;;5093995;28;20495;-76
2021/11/29 11:57:24;;;;;;;2.42;0.38;;;12.30;91.00;;;;;;5093734;28;20020;-76
2021/11/29 12:00:06;;;;;;;1.83;0.40;;;12.30;89.90;;;;;;5108915;28;20480;-76
2021/11/29 12:03:01;;;;;;;2.00;0.40;;;12.70;89.70;;;;;;5093759;28;20024;-76
2021/11/29 12:05:28;;;;;;;4.22;0.75;;;13.40;89.50;;;;;;5094214;28;20051;-76
2021/11/29 12:07:54;;;;;;;3.97;0.30;;;14.00;88.60;;;;;;5092745;28;20096;-76
2021/11/29 12:10:36;;;;;;;1.58;0.50;;;14.10;84.70;;;;;;5093792;28;20031;-76
2021/11/29 12:13:15;;;;;;;3.13;0.50;;;13.90;79.40;;;;;;5106596;28;20581;-76
2021/11/29 12:15:56;;;;;;;0.98;0.40;;;13.70;77.60;;;;;;5097086;28;20425;-76
2021/11/29 12:18:33;;;;;;;0.88;0.30;;;13.30;75.10;;;;;;5093590;28;20036;-76
2021/11/29 12:21:22;;;;;;;2.30;0.40;;;12.80;74.00;;;;;;5109163;28;20024;-76
2021/11/29 12:24:01;;;;;;;2.40;0.40;;;12.40;74.00;;;;;;5114176;28;20015;-76
2021/11/29 12:26:45;;;;;;;1.77;0.38;;;11.80;73.70;;;;;;5106668;28;20098;-76
2021/11/29 12:29:21;;;;;;;0.82;0.40;;;11.20;74.00;;;;;;5106172;28;20039;-72
2021/11/29 12:32:06;;;;;;;2.67;0.63;;;10.80;75.40;;;;;;5103572;28;20035;-72
2021/11/29 12:34:47;;;;;;;1.30;0.60;;;10.40;76.30;;;;;;5093226;28;20024;-72
2021/11/29 12:37:30;;;;;;;2.33;0.60;;;10.10;78.60;;;;;;5093638;28;20333;-73
2021/11/29 12:40:04;;;;;;;2.47;0.70;;;10.60;81.90;;;;;;5094723;28;20028;-73
2021/11/29 12:42:33;;;;;;;2.75;0.40;;;11.50;82.40;;;;;;5093269;28;20047;-72
2021/11/29 12:45:08;;;;;;;1.80;0.30;;;12.40;82.40;;;;;;5091974;28;20123;-73
2021/11/29 12:47:43;;;;;;;1.45;0.40;;;13.20;81.30;;;;;;5092207;28;20031;-72
2021/11/29 12:50:34;;;;;;;2.15;0.60;;;14.00;80.10;;;;;;5093544;28;20016;-73
2021/11/29 12:53:11;;;;;;;1.70;0.50;;;14.80;78.50;;;;;;5096036;28;20039;-73
2021/11/29 12:55:39;;;;;;;1.25;0.40;;;15.20;76.50;;;;;;5109366;28;20028;-73
2021/11/29 12:58:10;;;;;;;1.23;0.40;;;15.50;75.40;;;;;;5113329;28;20494;-73
2021/11/29 13:00:41;;;;;;;2.47;0.47;;;15.60;71.70;;;;;;5113629;28;20051;-73